createdAt,value
2022-09-30T00:02:11.487Z,59.43
2022-09-30T00:05:16.012Z,59.14
2022-09-30T00:08:22.923Z,59.21
2022-09-30T00:11:36.216Z,57.28
2022-09-30T00:14:40.973Z,56.74
2022-09-30T00:17:45.452Z,55.58
2022-09-30T00:20:54.048Z,53.77
2022-09-30T00:23:58.843Z,53.64
2022-09-30T00:27:07.931Z,52.72
2022-09-30T00:30:15.892Z,52.55
2022-09-30T00:33:20.974Z,52.05
2022-09-30T00:36:25.808Z,50.62
2022-09-30T00:39:32.335Z,49.80
2022-09-30T00:42:37.011Z,49.27
2022-09-30T00:45:45.550Z,47.53
2022-09-30T00:48:55.038Z,45.65
2022-09-30T00:52:02.821Z,45.31
2022-09-30T00:55:15.203Z,45.16
2022-09-30T00:58:44.412Z,44.07
2022-09-30T01:01:49.401Z,44.04
2022-09-30T01:04:58.366Z,44.24
2022-09-30T01:08:10.220Z,44.04
2022-09-30T01:11:16.069Z,42.26
2022-09-30T01:14:26.369Z,42.32
2022-09-30T01:17:48.310Z,41.31
2022-09-30T01:21:14.941Z,39.99
2022-09-30T01:24:41.010Z,39.36
2022-09-30T01:28:19.133Z,38.28
2022-09-30T01:31:50.846Z,39.18
2022-09-30T01:35:22.861Z,40.81
2022-09-30T01:38:43.072Z,39.32
2022-09-30T01:42:07.332Z,40.38
2022-09-30T01:45:18.163Z,41.07
2022-09-30T01:48:43.894Z,39.13
2022-09-30T01:51:48.171Z,38.63
2022-09-30T01:55:11.648Z,39.76
2022-09-30T01:58:31.385Z,39.38
2022-09-30T02:01:50.222Z,39.67
2022-09-30T02:05:02.459Z,40.34
2022-09-30T02:08:18.798Z,39.09
2022-09-30T02:11:29.976Z,38.60
2022-09-30T02:14:38.624Z,40.30
2022-09-30T02:18:04.478Z,39.02
2022-09-30T02:21:14.302Z,39.92
2022-09-30T02:24:28.161Z,39.59
2022-09-30T02:27:43.208Z,39.65
2022-09-30T02:31:02.797Z,39.82
2022-09-30T02:34:15.869Z,39.85
2022-09-30T02:37:26.294Z,39.77
2022-09-30T02:40:55.068Z,40.92
2022-09-30T02:44:03.268Z,40.61
2022-09-30T02:47:45.399Z,40.33
2022-09-30T02:51:02.066Z,41.34
2022-09-30T02:54:20.471Z,41.82
2022-09-30T02:57:54.135Z,41.14
2022-09-30T03:01:01.956Z,41.92
2022-09-30T03:04:09.223Z,41.79
2022-09-30T03:07:15.389Z,41.10
2022-09-30T03:10:20.215Z,41.40
2022-09-30T03:13:57.117Z,40.21
2022-09-30T03:17:28.113Z,40.75
2022-09-30T03:20:32.671Z,41.87
2022-09-30T03:24:01.118Z,41.54
2022-09-30T03:27:27.874Z,40.80
2022-09-30T03:30:36.370Z,41.17
2022-09-30T03:34:17.940Z,41.37
2022-09-30T03:37:46.264Z,41.08
2022-09-30T03:41:05.486Z,40.55
2022-09-30T03:44:25.332Z,41.33
2022-09-30T03:47:35.065Z,41.62
2022-09-30T03:50:42.540Z,40.90
2022-09-30T03:53:50.200Z,41.04
2022-09-30T03:56:55.079Z,40.90
2022-09-30T04:00:02.550Z,41.14
2022-09-30T04:03:09.227Z,41.39
2022-09-30T04:06:14.785Z,41.11
2022-09-30T04:09:21.820Z,41.73
2022-09-30T04:12:28.579Z,41.54
2022-09-30T04:15:40.064Z,41.38
2022-09-30T04:18:44.621Z,41.56
2022-09-30T04:21:58.035Z,41.47
2022-09-30T04:25:02.532Z,40.38
2022-09-30T04:28:07.177Z,40.35
2022-09-30T04:31:13.302Z,40.33
2022-09-30T04:34:17.642Z,40.16
2022-09-30T04:37:22.241Z,40.62
2022-09-30T04:40:27.021Z,40.25
2022-09-30T04:43:35.136Z,39.89
2022-09-30T04:46:39.699Z,39.48
2022-09-30T04:49:48.011Z,38.92
2022-09-30T04:52:57.006Z,38.71
2022-09-30T04:56:03.036Z,39.25
2022-09-30T04:59:07.917Z,38.68
2022-09-30T05:02:16.466Z,38.87
2022-09-30T05:05:23.359Z,39.30
2022-09-30T05:08:31.905Z,39.30
2022-09-30T05:11:39.120Z,38.90
2022-09-30T05:14:43.593Z,39.01
2022-09-30T05:17:51.037Z,38.93
2022-09-30T05:21:00.589Z,39.12
2022-09-30T05:24:05.392Z,38.58
2022-09-30T05:27:10.054Z,38.90
2022-09-30T05:30:16.957Z,38.60
2022-09-30T05:33:21.414Z,38.89
2022-09-30T05:36:25.860Z,38.92
2022-09-30T05:39:32.371Z,39.11
2022-09-30T05:42:39.105Z,39.19
2022-09-30T05:45:43.769Z,39.33
2022-09-30T05:48:48.680Z,39.76
2022-09-30T05:51:58.336Z,40.01
2022-09-30T05:55:04.424Z,40.29
2022-09-30T05:58:11.935Z,40.80
2022-09-30T06:01:17.357Z,41.62
2022-09-30T06:04:24.181Z,41.92
2022-09-30T06:07:53.468Z,41.77
2022-09-30T06:10:55.861Z,41.73
2022-09-30T06:14:00.531Z,42.06
2022-09-30T06:17:07.293Z,42.48
2022-09-30T06:20:12.379Z,42.51
2022-09-30T06:23:16.632Z,43.44
2022-09-30T06:26:21.410Z,42.95
2022-09-30T06:29:28.704Z,43.10
2022-09-30T06:32:35.441Z,43.51
2022-09-30T06:35:43.010Z,43.97
2022-09-30T06:38:55.285Z,43.93
2022-09-30T06:41:59.773Z,44.18
2022-09-30T06:45:04.165Z,44.67
2022-09-30T06:48:09.999Z,45.35
2022-09-30T06:51:14.711Z,45.52
2022-09-30T06:54:22.779Z,45.81
2022-09-30T06:57:28.700Z,46.27
2022-09-30T07:00:33.212Z,46.31
2022-09-30T07:03:37.959Z,46.87
2022-09-30T07:06:42.665Z,47.27
2022-09-30T07:09:48.155Z,47.70
2022-09-30T07:12:53.444Z,48.04
2022-09-30T07:15:58.645Z,48.38
2022-09-30T07:19:04.138Z,48.47
2022-09-30T07:22:30.311Z,48.67
2022-09-30T07:25:37.115Z,48.93
2022-09-30T07:28:42.394Z,49.44
2022-09-30T07:31:47.124Z,49.93
2022-09-30T07:34:54.022Z,50.62
2022-09-30T07:38:00.732Z,51.05
2022-09-30T07:41:10.916Z,51.42
2022-09-30T07:44:16.967Z,51.62
2022-09-30T07:47:21.833Z,51.86
2022-09-30T07:50:29.551Z,51.77
2022-09-30T07:53:34.788Z,51.84
2022-09-30T07:57:10.188Z,51.92
2022-09-30T08:00:30.286Z,52.28
2022-09-30T08:03:33.957Z,52.83
2022-09-30T08:06:42.268Z,52.87
2022-09-30T08:09:47.052Z,52.96
2022-09-30T08:12:54.409Z,53.37
2022-09-30T08:16:01.018Z,53.66
2022-09-30T08:19:05.886Z,54.24
2022-09-30T08:22:11.423Z,54.90
2022-09-30T08:25:15.907Z,55.28
2022-09-30T08:28:20.378Z,55.70
2022-09-30T08:31:25.641Z,56.35
2022-09-30T08:34:34.698Z,55.91
2022-09-30T08:37:39.288Z,55.46
2022-09-30T08:41:06.872Z,55.47
2022-09-30T08:44:34.544Z,55.42
2022-09-30T08:47:51.085Z,55.53
2022-09-30T08:51:06.113Z,55.88
2022-09-30T08:54:16.136Z,56.13
2022-09-30T08:57:25.936Z,56.21
2022-09-30T09:00:30.779Z,56.72
2022-09-30T09:03:35.579Z,57.07
2022-09-30T09:07:16.600Z,57.59
2022-09-30T09:10:42.104Z,57.64
2022-09-30T09:13:56.066Z,57.87
2022-09-30T09:17:25.044Z,58.06
2022-09-30T09:20:37.585Z,58.10
2022-09-30T09:23:43.028Z,58.17
2022-09-30T09:26:49.440Z,59.07
2022-09-30T09:30:11.027Z,60.05
2022-09-30T09:33:28.674Z,60.00
2022-09-30T09:37:08.597Z,59.44
2022-09-30T09:41:04.304Z,59.75
2022-09-30T09:44:18.647Z,59.53
2022-09-30T09:47:23.145Z,59.33
2022-09-30T09:50:40.083Z,59.15
2022-09-30T09:53:59.020Z,59.12
2022-09-30T09:57:15.967Z,59.59
2022-09-30T10:00:46.368Z,59.64
2022-09-30T10:04:27.005Z,60.21
2022-09-30T10:07:35.375Z,60.22
2022-09-30T10:10:48.248Z,60.30
2022-09-30T10:14:01.382Z,60.36
2022-09-30T10:17:17.368Z,61.25
2022-09-30T10:20:35.074Z,63.08
2022-09-30T10:23:41.515Z,62.07
2022-09-30T10:26:48.886Z,61.55
2022-09-30T10:29:54.123Z,61.42
2022-09-30T10:33:03.117Z,62.93
2022-09-30T10:36:20.600Z,65.14
2022-09-30T10:39:29.353Z,64.17
2022-09-30T10:42:38.623Z,64.51
2022-09-30T10:46:01.323Z,65.57
2022-09-30T10:49:13.638Z,66.04
2022-09-30T10:52:33.236Z,65.26
2022-09-30T10:55:44.880Z,65.26
2022-09-30T11:05:28.580Z,65.47
2022-09-30T11:08:52.392Z,65.85
2022-09-30T11:12:04.368Z,66.17
2022-09-30T11:15:30.278Z,66.60
2022-09-30T11:18:50.879Z,66.75
2022-09-30T11:22:05.587Z,65.82
2022-09-30T11:25:19.950Z,65.82
2022-09-30T11:28:47.885Z,65.47
2022-09-30T11:31:58.255Z,64.90
2022-09-30T11:35:30.761Z,64.85
2022-09-30T11:39:39.125Z,64.96
2022-09-30T11:43:10.582Z,64.73
2022-09-30T11:46:26.635Z,64.06
2022-09-30T11:49:47.011Z,64.38
2022-09-30T11:53:16.814Z,64.54
2022-09-30T11:56:45.628Z,64.86
2022-09-30T11:59:58.355Z,65.04
2022-09-30T12:03:14.704Z,65.41
2022-09-30T12:06:37.947Z,66.16
2022-09-30T12:10:02.619Z,66.51
2022-09-30T12:13:20.486Z,66.25
2022-09-30T12:16:33.148Z,66.01
2022-09-30T12:19:56.224Z,66.19
2022-09-30T12:23:19.523Z,66.46
2022-09-30T12:26:24.077Z,66.46
2022-09-30T12:29:52.423Z,66.22
2022-09-30T12:33:18.907Z,66.53
2022-09-30T12:36:37.747Z,65.87
2022-09-30T12:40:00.390Z,65.55
2022-09-30T12:43:23.138Z,64.61
2022-09-30T12:46:33.313Z,63.75
2022-09-30T12:49:41.253Z,63.42
2022-09-30T12:52:45.838Z,63.75
2022-09-30T12:55:50.810Z,62.70
2022-09-30T12:58:56.071Z,62.24
2022-09-30T13:02:01.617Z,62.49
2022-09-30T13:05:33.998Z,62.34
2022-09-30T13:09:00.515Z,62.24
2022-09-30T13:12:08.107Z,61.98
2022-09-30T13:15:46.604Z,61.65
2022-09-30T13:18:53.824Z,61.39
2022-09-30T13:22:30.535Z,61.00
2022-09-30T13:25:55.277Z,60.25
2022-09-30T13:29:04.811Z,60.35
2022-09-30T13:32:10.227Z,59.25
2022-09-30T13:35:33.488Z,59.27
2022-09-30T13:38:41.393Z,59.74
2022-09-30T13:42:08.503Z,60.51
2022-09-30T13:45:22.105Z,60.76
2022-09-30T13:48:37.941Z,59.91
2022-09-30T13:51:47.199Z,60.39
2022-09-30T13:54:55.621Z,60.65
2022-09-30T13:58:27.072Z,61.76
2022-09-30T14:01:38.440Z,62.69
2022-09-30T14:04:52.829Z,65.84
2022-09-30T14:08:14.012Z,68.24
2022-09-30T14:11:36.563Z,68.68
2022-09-30T14:15:10.953Z,70.49
2022-09-30T14:18:35.484Z,75.79
2022-09-30T14:21:46.183Z,74.39
2022-09-30T14:24:52.132Z,75.88
2022-09-30T14:28:04.212Z,78.86
2022-09-30T14:31:16.121Z,82.48
2022-09-30T14:34:24.193Z,85.67
2022-09-30T14:37:46.448Z,91.19
2022-09-30T14:40:57.238Z,89.75
2022-09-30T14:44:09.501Z,86.53
2022-09-30T14:47:18.551Z,84.08
2022-09-30T14:50:28.035Z,86.05
2022-09-30T14:53:35.223Z,85.66
2022-09-30T14:56:42.734Z,84.34
2022-09-30T14:59:47.291Z,84.88
2022-09-30T15:02:52.878Z,85.74
2022-09-30T15:05:58.828Z,88.06
2022-09-30T15:09:18.899Z,86.37
2022-09-30T15:12:26.101Z,86.35
2022-09-30T15:15:38.866Z,87.44
2022-09-30T15:18:47.930Z,87.92
2022-09-30T15:21:55.646Z,84.58
2022-09-30T15:25:01.194Z,83.61
2022-09-30T15:28:11.202Z,83.45
2022-09-30T15:31:28.805Z,87.22
2022-09-30T15:34:35.106Z,88.07
2022-09-30T15:37:39.760Z,85.62
2022-09-30T15:40:51.439Z,84.90
2022-09-30T15:44:01.259Z,87.87
2022-09-30T15:47:09.864Z,88.20
2022-09-30T15:50:49.839Z,87.09
2022-09-30T15:54:01.413Z,85.55
2022-09-30T15:57:38.085Z,86.52
2022-09-30T16:00:43.630Z,86.51
2022-09-30T16:03:50.669Z,84.91
2022-09-30T16:07:10.223Z,85.05
2022-09-30T16:10:23.618Z,87.33
2022-09-30T16:13:31.013Z,88.79
2022-09-30T16:16:37.927Z,90.32
2022-09-30T16:19:43.925Z,88.49
2022-09-30T16:22:52.515Z,86.36
2022-09-30T16:26:29.599Z,88.39
2022-09-30T16:29:34.807Z,87.91
2022-09-30T16:32:43.410Z,86.62
2022-09-30T16:35:48.469Z,86.13
2022-09-30T16:38:52.973Z,86.14
2022-09-30T16:42:02.668Z,86.72
2022-09-30T16:45:07.578Z,86.56
2022-09-30T16:48:18.961Z,89.42
2022-09-30T16:51:26.418Z,91.43
2022-09-30T16:54:33.900Z,89.45
2022-09-30T16:57:41.415Z,87.46
2022-09-30T17:00:46.293Z,87.79
2022-09-30T17:03:51.458Z,87.19
2022-09-30T17:06:59.941Z,87.24
2022-09-30T17:10:07.010Z,87.43
2022-09-30T17:13:18.545Z,88.16
2022-09-30T17:16:24.063Z,88.29
2022-09-30T17:19:30.955Z,88.03
2022-09-30T17:22:42.949Z,90.87
2022-09-30T17:25:48.160Z,93.25
2022-09-30T17:28:55.415Z,92.71
2022-09-30T17:32:11.017Z,91.41
2022-09-30T17:35:15.760Z,89.61
2022-09-30T17:38:20.329Z,89.68
2022-09-30T17:41:43.056Z,89.26
2022-09-30T17:44:48.763Z,89.48
2022-09-30T17:47:53.358Z,90.98
2022-09-30T17:51:00.757Z,92.31
2022-09-30T17:54:10.199Z,93.16
2022-09-30T17:57:14.758Z,94.36
2022-09-30T18:00:20.148Z,95.03
2022-09-30T18:03:25.932Z,94.82
2022-09-30T18:06:32.290Z,94.25
2022-09-30T18:09:40.123Z,93.33
2022-09-30T18:12:44.793Z,93.30
2022-09-30T18:15:49.331Z,92.74
2022-09-30T18:18:53.723Z,92.36
2022-09-30T18:21:58.192Z,93.00
2022-09-30T18:25:20.642Z,93.66
2022-09-30T18:28:25.174Z,93.07
2022-09-30T18:31:31.201Z,93.05
2022-09-30T18:34:36.140Z,92.19
2022-09-30T18:37:44.064Z,92.88
2022-09-30T18:40:51.861Z,92.28
2022-09-30T18:44:00.295Z,92.26
2022-09-30T18:47:06.777Z,92.42
2022-09-30T18:50:13.210Z,92.83
2022-09-30T18:53:22.412Z,92.25
2022-09-30T18:56:32.763Z,94.00
2022-09-30T18:59:37.243Z,93.35
2022-09-30T19:02:41.900Z,93.78
2022-09-30T19:05:49.021Z,93.51
2022-09-30T19:08:56.725Z,94.02
2022-09-30T19:12:02.584Z,93.57
2022-09-30T19:15:10.003Z,92.95
2022-09-30T19:18:17.034Z,92.75
2022-09-30T19:21:23.800Z,92.74
2022-09-30T19:24:29.982Z,93.76
2022-09-30T19:27:39.195Z,93.13
2022-09-30T19:30:43.885Z,92.90
2022-09-30T19:33:56.589Z,93.58
2022-09-30T19:37:03.528Z,94.24
2022-09-30T19:40:20.527Z,94.21
2022-09-30T19:43:26.532Z,93.63
2022-09-30T19:46:31.436Z,93.16
2022-09-30T19:49:36.252Z,93.62
2022-09-30T19:52:54.350Z,94.27
2022-09-30T19:56:14.763Z,94.49
2022-09-30T19:59:19.229Z,94.63
2022-09-30T20:02:24.002Z,93.70
2022-09-30T20:05:28.579Z,93.74
2022-09-30T20:08:35.196Z,93.36
2022-09-30T20:11:42.904Z,92.86
2022-09-30T20:15:07.432Z,92.70
2022-09-30T20:18:14.848Z,93.49
2022-09-30T20:21:19.343Z,92.74
2022-09-30T20:24:23.754Z,91.82
2022-09-30T20:27:30.062Z,91.96
2022-09-30T20:30:35.427Z,92.00
2022-09-30T20:33:40.264Z,91.59
2022-09-30T20:36:45.840Z,91.53
2022-09-30T20:39:50.185Z,91.26
2022-09-30T20:42:59.303Z,91.31
2022-09-30T20:46:09.138Z,91.70
2022-09-30T20:49:16.535Z,91.80
2022-09-30T20:52:23.348Z,91.21
2022-09-30T20:55:27.845Z,90.97
2022-09-30T20:58:34.984Z,91.35
2022-09-30T21:01:39.608Z,90.63
2022-09-30T21:04:50.711Z,91.59
2022-09-30T21:08:02.955Z,91.50
2022-09-30T21:11:11.084Z,92.13
2022-09-30T21:14:20.555Z,92.90
2022-09-30T21:17:32.230Z,94.08
2022-09-30T21:20:39.855Z,94.17
2022-09-30T21:23:44.442Z,92.90
2022-09-30T21:26:48.914Z,91.75
2022-09-30T21:29:53.413Z,91.38
2022-09-30T21:33:00.924Z,91.18
2022-09-30T21:36:09.154Z,92.48
2022-09-30T21:39:17.026Z,93.73
2022-09-30T21:42:24.475Z,95.23
2022-09-30T21:45:29.182Z,96.90
2022-09-30T21:48:34.544Z,96.77
2022-09-30T21:51:38.796Z,97.95
2022-09-30T21:54:43.172Z,95.58
2022-09-30T21:57:48.267Z,95.75
2022-09-30T22:00:54.816Z,94.80
2022-09-30T22:03:59.490Z,94.21
2022-09-30T22:07:06.627Z,94.79
2022-09-30T22:10:12.800Z,94.22
2022-09-30T22:13:17.713Z,94.66
2022-09-30T22:16:27.893Z,93.21
2022-09-30T22:19:32.445Z,92.45
2022-09-30T22:22:36.921Z,93.15
2022-09-30T22:25:43.105Z,95.17
2022-09-30T22:28:58.490Z,94.27
2022-09-30T22:32:03.578Z,94.91
2022-09-30T22:35:27.185Z,95.31
2022-09-30T22:38:32.058Z,94.13
2022-09-30T22:41:39.996Z,94.59
2022-09-30T22:44:44.370Z,94.26
2022-09-30T22:47:48.761Z,95.15
2022-09-30T22:50:53.092Z,96.10
2022-09-30T22:53:57.727Z,95.92
2022-09-30T22:57:12.351Z,96.45
2022-09-30T23:00:16.808Z,96.12
2022-09-30T23:03:21.359Z,95.15
2022-09-30T23:06:27.313Z,94.34
2022-09-30T23:09:32.088Z,92.82
2022-09-30T23:12:38.859Z,93.76
2022-09-30T23:15:49.271Z,94.48
2022-09-30T23:18:53.863Z,94.12
2022-09-30T23:22:01.385Z,93.53
2022-09-30T23:25:08.609Z,92.65
2022-09-30T23:28:14.543Z,93.35
2022-09-30T23:31:19.124Z,93.72
2022-09-30T23:34:23.547Z,93.15
2022-09-30T23:37:27.901Z,92.22
2022-09-30T23:40:34.193Z,91.73
2022-09-30T23:43:38.625Z,91.35
2022-09-30T23:47:05.577Z,92.02
2022-09-30T23:50:11.151Z,92.94
2022-09-30T23:53:16.128Z,93.02
2022-09-30T23:56:21.322Z,93.07
2022-09-30T23:59:25.805Z,93.86
